sensor_id;sensor_type;location;lat;lon;timestamp;P1;durP1;ratioP1;P2;durP2;ratioP2
13202;SDS011;6666;51.626;7.530;2023-07-29T00:02:15;4.55;;;2.80;;
13202;SDS011;6666;51.626;7.530;2023-07-29T00:04:43;4.70;;;2.53;;
13202;SDS011;6666;51.626;7.530;2023-07-29T00:07:13;4.30;;;3.40;;
13202;SDS011;6666;51.626;7.530;2023-07-29T00:09:41;4.95;;;3.30;;
13202;SDS011;6666;51.626;7.530;2023-07-29T00:12:09;5.20;;;2.90;;
13202;SDS011;6666;51.626;7.530;2023-07-29T00:14:37;4.53;;;3.10;;
13202;SDS011;6666;51.626;7.530;2023-07-29T00:17:05;4.18;;;3.10;;
13202;SDS011;6666;51.626;7.530;2023-07-29T00:19:34;3.67;;;3.35;;
13202;SDS011;6666;51.626;7.530;2023-07-29T00:22:02;3.80;;;2.95;;
13202;SDS011;6666;51.626;7.530;2023-07-29T00:24:31;3.97;;;3.10;;
13202;SDS011;6666;51.626;7.530;2023-07-29T00:27:00;3.80;;;3.30;;
13202;SDS011;6666;51.626;7.530;2023-07-29T00:29:28;4.82;;;3.25;;
13202;SDS011;6666;51.626;7.530;2023-07-29T00:31:56;3.55;;;3.10;;
13202;SDS011;6666;51.626;7.530;2023-07-29T00:34:24;3.20;;;2.90;;
13202;SDS011;6666;51.626;7.530;2023-07-29T00:36:52;4.80;;;3.22;;
13202;SDS011;6666;51.626;7.530;2023-07-29T00:39:20;6.82;;;3.47;;
13202;SDS011;6666;51.626;7.530;2023-07-29T00:41:51;5.47;;;3.38;;
13202;SDS011;6666;51.626;7.530;2023-07-29T00:44:21;5.40;;;3.60;;
13202;SDS011;6666;51.626;7.530;2023-07-29T00:46:49;6.22;;;3.80;;
13202;SDS011;6666;51.626;7.530;2023-07-29T00:49:19;5.72;;;3.80;;
13202;SDS011;6666;51.626;7.530;2023-07-29T00:51:48;4.57;;;3.60;;
13202;SDS011;6666;51.626;7.530;2023-07-29T00:54:16;4.30;;;3.70;;
13202;SDS011;6666;51.626;7.530;2023-07-29T00:56:44;5.05;;;3.60;;
13202;SDS011;6666;51.626;7.530;2023-07-29T00:59:14;4.20;;;3.60;;
13202;SDS011;6666;51.626;7.530;2023-07-29T01:01:42;4.53;;;3.55;;
13202;SDS011;6666;51.626;7.530;2023-07-29T01:04:11;5.43;;;3.90;;
13202;SDS011;6666;51.626;7.530;2023-07-29T01:06:41;3.70;;;3.40;;
13202;SDS011;6666;51.626;7.530;2023-07-29T01:09:20;5.00;;;3.77;;
13202;SDS011;6666;51.626;7.530;2023-07-29T01:12:08;4.40;;;3.80;;
13202;SDS011;6666;51.626;7.530;2023-07-29T01:14:45;6.35;;;3.50;;
13202;SDS011;6666;51.626;7.530;2023-07-29T01:17:20;4.63;;;4.22;;
13202;SDS011;6666;51.626;7.530;2023-07-29T01:19:55;4.97;;;4.00;;
13202;SDS011;6666;51.626;7.530;2023-07-29T01:22:29;4.70;;;4.10;;
13202;SDS011;6666;51.626;7.530;2023-07-29T01:24:59;4.55;;;3.90;;
13202;SDS011;6666;51.626;7.530;2023-07-29T01:27:27;4.30;;;3.50;;
13202;SDS011;6666;51.626;7.530;2023-07-29T01:29:56;5.22;;;4.00;;
13202;SDS011;6666;51.626;7.530;2023-07-29T01:32:28;4.32;;;3.90;;
13202;SDS011;6666;51.626;7.530;2023-07-29T01:35:07;4.82;;;3.60;;
13202;SDS011;6666;51.626;7.530;2023-07-29T01:37:43;8.85;;;3.75;;
13202;SDS011;6666;51.626;7.530;2023-07-29T01:40:16;6.20;;;3.90;;
13202;SDS011;6666;51.626;7.530;2023-07-29T01:42:46;7.78;;;3.80;;
13202;SDS011;6666;51.626;7.530;2023-07-29T01:45:14;5.18;;;3.80;;
13202;SDS011;6666;51.626;7.530;2023-07-29T01:47:43;5.43;;;4.10;;
13202;SDS011;6666;51.626;7.530;2023-07-29T01:50:14;4.53;;;4.00;;
13202;SDS011;6666;51.626;7.530;2023-07-29T01:52:42;5.30;;;4.00;;
13202;SDS011;6666;51.626;7.530;2023-07-29T01:55:10;4.78;;;3.60;;
13202;SDS011;6666;51.626;7.530;2023-07-29T01:57:39;5.45;;;3.70;;
13202;SDS011;6666;51.626;7.530;2023-07-29T02:00:08;3.80;;;3.40;;
13202;SDS011;6666;51.626;7.530;2023-07-29T02:02:45;5.30;;;3.30;;
13202;SDS011;6666;51.626;7.530;2023-07-29T02:05:13;5.28;;;3.40;;
13202;SDS011;6666;51.626;7.530;2023-07-29T02:07:42;3.97;;;3.40;;
13202;SDS011;6666;51.626;7.530;2023-07-29T02:10:10;6.80;;;3.90;;
13202;SDS011;6666;51.626;7.530;2023-07-29T02:12:39;4.00;;;3.60;;
13202;SDS011;6666;51.626;7.530;2023-07-29T02:15:08;6.00;;;3.50;;
13202;SDS011;6666;51.626;7.530;2023-07-29T02:17:37;5.47;;;3.80;;
13202;SDS011;6666;51.626;7.530;2023-07-29T02:20:05;9.00;;;3.85;;
13202;SDS011;6666;51.626;7.530;2023-07-29T02:22:35;5.13;;;4.15;;
13202;SDS011;6666;51.626;7.530;2023-07-29T02:25:03;6.30;;;4.13;;
13202;SDS011;6666;51.626;7.530;2023-07-29T02:27:32;7.05;;;4.05;;
13202;SDS011;6666;51.626;7.530;2023-07-29T02:30:01;5.40;;;4.10;;
13202;SDS011;6666;51.626;7.530;2023-07-29T02:32:33;4.80;;;4.18;;
13202;SDS011;6666;51.626;7.530;2023-07-29T02:35:01;4.27;;;3.80;;
13202;SDS011;6666;51.626;7.530;2023-07-29T02:37:29;4.18;;;3.60;;
13202;SDS011;6666;51.626;7.530;2023-07-29T02:39:58;4.35;;;3.95;;
13202;SDS011;6666;51.626;7.530;2023-07-29T02:42:26;4.20;;;3.80;;
13202;SDS011;6666;51.626;7.530;2023-07-29T02:44:54;9.18;;;4.13;;
13202;SDS011;6666;51.626;7.530;2023-07-29T02:47:24;5.45;;;4.25;;
13202;SDS011;6666;51.626;7.530;2023-07-29T02:49:52;4.63;;;3.83;;
13202;SDS011;6666;51.626;7.530;2023-07-29T02:52:20;4.75;;;4.00;;
13202;SDS011;6666;51.626;7.530;2023-07-29T02:54:49;5.17;;;3.87;;
13202;SDS011;6666;51.626;7.530;2023-07-29T02:57:17;4.57;;;4.18;;
13202;SDS011;6666;51.626;7.530;2023-07-29T02:59:45;4.90;;;4.40;;
13202;SDS011;6666;51.626;7.530;2023-07-29T03:02:13;4.10;;;3.60;;
13202;SDS011;6666;51.626;7.530;2023-07-29T03:04:43;4.10;;;3.70;;
13202;SDS011;6666;51.626;7.530;2023-07-29T03:07:12;4.50;;;3.90;;
13202;SDS011;6666;51.626;7.530;2023-07-29T03:09:40;5.00;;;4.00;;
13202;SDS011;6666;51.626;7.530;2023-07-29T03:12:08;5.57;;;4.10;;
13202;SDS011;6666;51.626;7.530;2023-07-29T03:14:36;4.95;;;4.18;;
13202;SDS011;6666;51.626;7.530;2023-07-29T03:17:05;4.30;;;3.53;;
13202;SDS011;6666;51.626;7.530;2023-07-29T03:19:33;6.22;;;4.28;;
13202;SDS011;6666;51.626;7.530;2023-07-29T03:22:03;5.40;;;3.95;;
13202;SDS011;6666;51.626;7.530;2023-07-29T03:24:31;5.18;;;3.90;;
13202;SDS011;6666;51.626;7.530;2023-07-29T03:26:59;5.60;;;4.50;;
13202;SDS011;6666;51.626;7.530;2023-07-29T03:29:27;5.25;;;4.18;;
13202;SDS011;6666;51.626;7.530;2023-07-29T03:31:55;4.15;;;3.75;;
13202;SDS011;6666;51.626;7.530;2023-07-29T03:34:23;4.37;;;3.80;;
13202;SDS011;6666;51.626;7.530;2023-07-29T03:36:52;4.43;;;3.60;;
13202;SDS011;6666;51.626;7.530;2023-07-29T03:39:21;4.80;;;3.28;;
13202;SDS011;6666;51.626;7.530;2023-07-29T03:41:49;3.92;;;3.55;;
13202;SDS011;6666;51.626;7.530;2023-07-29T03:44:17;4.80;;;3.90;;
13202;SDS011;6666;51.626;7.530;2023-07-29T03:46:46;3.90;;;3.50;;
13202;SDS011;6666;51.626;7.530;2023-07-29T03:49:14;6.20;;;3.13;;
13202;SDS011;6666;51.626;7.530;2023-07-29T03:51:42;4.00;;;3.10;;
13202;SDS011;6666;51.626;7.530;2023-07-29T03:54:11;6.22;;;3.30;;
13202;SDS011;6666;51.626;7.530;2023-07-29T03:56:40;3.40;;;3.00;;
13202;SDS011;6666;51.626;7.530;2023-07-29T03:59:08;3.65;;;3.08;;
13202;SDS011;6666;51.626;7.530;2023-07-29T04:01:36;2.88;;;2.67;;
13202;SDS011;6666;51.626;7.530;2023-07-29T04:04:05;3.15;;;2.72;;
13202;SDS011;6666;51.626;7.530;2023-07-29T04:06:34;6.95;;;2.50;;
13202;SDS011;6666;51.626;7.530;2023-07-29T04:09:03;2.50;;;2.30;;
13202;SDS011;6666;51.626;7.530;2023-07-29T04:11:32;3.10;;;2.80;;
13202;SDS011;6666;51.626;7.530;2023-07-29T04:14:02;9.50;;;2.90;;
13202;SDS011;6666;51.626;7.530;2023-07-29T04:16:30;2.97;;;2.67;;
13202;SDS011;6666;51.626;7.530;2023-07-29T04:18:58;3.37;;;2.70;;
13202;SDS011;6666;51.626;7.530;2023-07-29T04:21:27;2.70;;;2.50;;
13202;SDS011;6666;51.626;7.530;2023-07-29T04:23:55;4.00;;;2.50;;
13202;SDS011;6666;51.626;7.530;2023-07-29T04:26:23;2.60;;;2.40;;
13202;SDS011;6666;51.626;7.530;2023-07-29T04:28:51;3.75;;;2.30;;
13202;SDS011;6666;51.626;7.530;2023-07-29T04:31:21;2.30;;;2.10;;
13202;SDS011;6666;51.626;7.530;2023-07-29T04:33:49;4.15;;;2.80;;
13202;SDS011;6666;51.626;7.530;2023-07-29T04:36:17;4.75;;;2.38;;
13202;SDS011;6666;51.626;7.530;2023-07-29T04:38:45;4.22;;;2.38;;
13202;SDS011;6666;51.626;7.530;2023-07-29T04:41:13;2.55;;;2.35;;
13202;SDS011;6666;51.626;7.530;2023-07-29T04:43:42;3.45;;;2.40;;
13202;SDS011;6666;51.626;7.530;2023-07-29T04:46:10;4.10;;;2.20;;
13202;SDS011;6666;51.626;7.530;2023-07-29T04:48:40;4.55;;;2.65;;
13202;SDS011;6666;51.626;7.530;2023-07-29T04:51:08;5.07;;;2.90;;
13202;SDS011;6666;51.626;7.530;2023-07-29T04:53:39;4.50;;;2.90;;
13202;SDS011;6666;51.626;7.530;2023-07-29T04:56:07;5.65;;;2.90;;
13202;SDS011;6666;51.626;7.530;2023-07-29T04:58:35;3.90;;;3.15;;
13202;SDS011;6666;51.626;7.530;2023-07-29T05:01:03;6.88;;;3.58;;
13202;SDS011;6666;51.626;7.530;2023-07-29T05:03:32;3.80;;;3.20;;
13202;SDS011;6666;51.626;7.530;2023-07-29T05:06:02;4.30;;;3.28;;
13202;SDS011;6666;51.626;7.530;2023-07-29T05:08:31;4.68;;;3.90;;
13202;SDS011;6666;51.626;7.530;2023-07-29T05:10:59;5.25;;;3.90;;
13202;SDS011;6666;51.626;7.530;2023-07-29T05:13:27;5.20;;;3.40;;
13202;SDS011;6666;51.626;7.530;2023-07-29T05:15:55;7.40;;;5.10;;
13202;SDS011;6666;51.626;7.530;2023-07-29T05:18:23;3.70;;;3.30;;
13202;SDS011;6666;51.626;7.530;2023-07-29T05:20:52;5.80;;;4.20;;
13202;SDS011;6666;51.626;7.530;2023-07-29T05:23:22;4.20;;;2.90;;
13202;SDS011;6666;51.626;7.530;2023-07-29T05:25:50;5.25;;;3.63;;
13202;SDS011;6666;51.626;7.530;2023-07-29T05:28:18;4.15;;;3.20;;
13202;SDS011;6666;51.626;7.530;2023-07-29T05:30:46;5.00;;;2.80;;
13202;SDS011;6666;51.626;7.530;2023-07-29T05:33:14;6.10;;;3.23;;
13202;SDS011;6666;51.626;7.530;2023-07-29T05:35:43;5.75;;;3.80;;
13202;SDS011;6666;51.626;7.530;2023-07-29T05:38:13;5.90;;;3.67;;
13202;SDS011;6666;51.626;7.530;2023-07-29T05:40:43;6.80;;;4.00;;
13202;SDS011;6666;51.626;7.530;2023-07-29T05:43:11;4.97;;;3.90;;
13202;SDS011;6666;51.626;7.530;2023-07-29T05:45:40;7.65;;;4.20;;
13202;SDS011;6666;51.626;7.530;2023-07-29T05:48:08;6.15;;;4.70;;
13202;SDS011;6666;51.626;7.530;2023-07-29T05:50:37;7.18;;;4.85;;
13202;SDS011;6666;51.626;7.530;2023-07-29T05:53:05;8.40;;;4.78;;
13202;SDS011;6666;51.626;7.530;2023-07-29T05:55:33;5.40;;;4.50;;
13202;SDS011;6666;51.626;7.530;2023-07-29T05:58:02;8.02;;;5.20;;
13202;SDS011;6666;51.626;7.530;2023-07-29T06:00:31;5.70;;;4.88;;
13202;SDS011;6666;51.626;7.530;2023-07-29T06:02:59;10.88;;;5.22;;
13202;SDS011;6666;51.626;7.530;2023-07-29T06:05:28;11.30;;;6.27;;
13202;SDS011;6666;51.626;7.530;2023-07-29T06:07:56;7.32;;;5.57;;
13202;SDS011;6666;51.626;7.530;2023-07-29T06:10:24;9.00;;;6.80;;
13202;SDS011;6666;51.626;7.530;2023-07-29T06:12:52;9.02;;;5.47;;
13202;SDS011;6666;51.626;7.530;2023-07-29T06:15:22;6.05;;;4.70;;
13202;SDS011;6666;51.626;7.530;2023-07-29T06:17:50;7.68;;;5.90;;
13202;SDS011;6666;51.626;7.530;2023-07-29T06:20:22;9.43;;;5.77;;
13202;SDS011;6666;51.626;7.530;2023-07-29T06:22:50;8.70;;;6.60;;
13202;SDS011;6666;51.626;7.530;2023-07-29T06:25:18;8.68;;;6.20;;
13202;SDS011;6666;51.626;7.530;2023-07-29T06:27:47;9.07;;;5.80;;
13202;SDS011;6666;51.626;7.530;2023-07-29T06:30:15;9.55;;;6.90;;
13202;SDS011;6666;51.626;7.530;2023-07-29T06:32:45;9.55;;;6.60;;
13202;SDS011;6666;51.626;7.530;2023-07-29T06:35:13;11.95;;;7.68;;
13202;SDS011;6666;51.626;7.530;2023-07-29T06:37:41;11.70;;;7.80;;
13202;SDS011;6666;51.626;7.530;2023-07-29T06:40:09;12.75;;;7.57;;
13202;SDS011;6666;51.626;7.530;2023-07-29T06:42:38;11.10;;;7.10;;
13202;SDS011;6666;51.626;7.530;2023-07-29T06:45:06;8.87;;;6.37;;
13202;SDS011;6666;51.626;7.530;2023-07-29T06:47:36;6.15;;;4.60;;
13202;SDS011;6666;51.626;7.530;2023-07-29T06:50:06;9.23;;;5.20;;
13202;SDS011;6666;51.626;7.530;2023-07-29T06:52:34;5.07;;;4.00;;
13202;SDS011;6666;51.626;7.530;2023-07-29T06:55:03;4.05;;;3.10;;
13202;SDS011;6666;51.626;7.530;2023-07-29T06:57:31;4.10;;;2.90;;
13202;SDS011;6666;51.626;7.530;2023-07-29T07:00:00;2.55;;;2.35;;
13202;SDS011;6666;51.626;7.530;2023-07-29T07:02:28;4.43;;;2.67;;
13202;SDS011;6666;51.626;7.530;2023-07-29T07:04:57;2.63;;;2.40;;
13202;SDS011;6666;51.626;7.530;2023-07-29T07:07:26;3.40;;;2.50;;
13202;SDS011;6666;51.626;7.530;2023-07-29T07:09:54;5.50;;;3.30;;
13202;SDS011;6666;51.626;7.530;2023-07-29T07:12:25;2.10;;;1.90;;
13202;SDS011;6666;51.626;7.530;2023-07-29T07:14:54;2.42;;;1.70;;
13202;SDS011;6666;51.626;7.530;2023-07-29T07:17:22;2.70;;;2.10;;
13202;SDS011;6666;51.626;7.530;2023-07-29T07:19:50;2.90;;;2.10;;
13202;SDS011;6666;51.626;7.530;2023-07-29T07:22:18;7.50;;;3.22;;
13202;SDS011;6666;51.626;7.530;2023-07-29T07:24:48;4.60;;;2.10;;
13202;SDS011;6666;51.626;7.530;2023-07-29T07:27:16;4.85;;;3.40;;
13202;SDS011;6666;51.626;7.530;2023-07-29T07:29:44;2.20;;;2.00;;
13202;SDS011;6666;51.626;7.530;2023-07-29T07:32:12;4.22;;;2.90;;
13202;SDS011;6666;51.626;7.530;2023-07-29T07:34:40;4.60;;;2.90;;
13202;SDS011;6666;51.626;7.530;2023-07-29T07:37:08;3.40;;;2.60;;
13202;SDS011;6666;51.626;7.530;2023-07-29T07:39:36;3.30;;;2.20;;
13202;SDS011;6666;51.626;7.530;2023-07-29T07:42:06;2.63;;;2.00;;
13202;SDS011;6666;51.626;7.530;2023-07-29T07:44:34;2.42;;;1.65;;
13202;SDS011;6666;51.626;7.530;2023-07-29T07:47:02;2.80;;;1.60;;
13202;SDS011;6666;51.626;7.530;2023-07-29T07:49:31;5.00;;;3.50;;
13202;SDS011;6666;51.626;7.530;2023-07-29T07:52:02;8.35;;;4.93;;
13202;SDS011;6666;51.626;7.530;2023-07-29T07:54:30;6.50;;;4.70;;
13202;SDS011;6666;51.626;7.530;2023-07-29T07:56:58;5.10;;;3.42;;
13202;SDS011;6666;51.626;7.530;2023-07-29T07:59:28;3.63;;;2.40;;
13202;SDS011;6666;51.626;7.530;2023-07-29T08:01:56;3.03;;;2.30;;
13202;SDS011;6666;51.626;7.530;2023-07-29T08:04:24;3.30;;;2.25;;
13202;SDS011;6666;51.626;7.530;2023-07-29T08:06:52;3.63;;;2.05;;
13202;SDS011;6666;51.626;7.530;2023-07-29T08:09:20;7.95;;;3.70;;
13202;SDS011;6666;51.626;7.530;2023-07-29T08:11:48;2.45;;;2.22;;
13202;SDS011;6666;51.626;7.530;2023-07-29T08:14:16;6.57;;;4.22;;
13202;SDS011;6666;51.626;7.530;2023-07-29T08:16:46;5.60;;;3.95;;
13202;SDS011;6666;51.626;7.530;2023-07-29T08:19:14;4.63;;;2.08;;
13202;SDS011;6666;51.626;7.530;2023-07-29T08:21:42;2.42;;;1.80;;
13202;SDS011;6666;51.626;7.530;2023-07-29T08:24:10;2.70;;;1.30;;
13202;SDS011;6666;51.626;7.530;2023-07-29T08:26:38;2.20;;;1.45;;
13202;SDS011;6666;51.626;7.530;2023-07-29T08:29:06;1.70;;;1.30;;
13202;SDS011;6666;51.626;7.530;2023-07-29T08:31:34;1.80;;;1.40;;
13202;SDS011;6666;51.626;7.530;2023-07-29T08:34:03;1.73;;;1.20;;
13202;SDS011;6666;51.626;7.530;2023-07-29T08:36:32;5.38;;;1.70;;
13202;SDS011;6666;51.626;7.530;2023-07-29T08:39:00;2.55;;;1.20;;
13202;SDS011;6666;51.626;7.530;2023-07-29T08:41:29;2.00;;;1.30;;
13202;SDS011;6666;51.626;7.530;2023-07-29T08:44:06;1.27;;;1.15;;
13202;SDS011;6666;51.626;7.530;2023-07-29T08:46:39;1.40;;;1.00;;
13202;SDS011;6666;51.626;7.530;2023-07-29T08:49:08;2.13;;;1.40;;
13202;SDS011;6666;51.626;7.530;2023-07-29T08:51:41;2.07;;;1.57;;
13202;SDS011;6666;51.626;7.530;2023-07-29T08:54:10;3.95;;;2.65;;
13202;SDS011;6666;51.626;7.530;2023-07-29T08:56:40;2.00;;;1.58;;
13202;SDS011;6666;51.626;7.530;2023-07-29T08:59:08;1.75;;;1.10;;
13202;SDS011;6666;51.626;7.530;2023-07-29T09:01:38;5.47;;;2.20;;
13202;SDS011;6666;51.626;7.530;2023-07-29T09:04:06;2.50;;;1.70;;
13202;SDS011;6666;51.626;7.530;2023-07-29T09:06:36;1.92;;;1.45;;
13202;SDS011;6666;51.626;7.530;2023-07-29T09:09:05;2.70;;;1.25;;
13202;SDS011;6666;51.626;7.530;2023-07-29T09:11:35;1.00;;;0.80;;
13202;SDS011;6666;51.626;7.530;2023-07-29T09:14:03;1.35;;;1.23;;
13202;SDS011;6666;51.626;7.530;2023-07-29T09:16:32;1.40;;;1.10;;
13202;SDS011;6666;51.626;7.530;2023-07-29T09:19:01;5.38;;;1.20;;
13202;SDS011;6666;51.626;7.530;2023-07-29T09:21:30;3.22;;;1.50;;
13202;SDS011;6666;51.626;7.530;2023-07-29T09:24:03;1.38;;;1.20;;
13202;SDS011;6666;51.626;7.530;2023-07-29T09:26:34;1.27;;;1.00;;
13202;SDS011;6666;51.626;7.530;2023-07-29T09:29:03;1.90;;;1.30;;
13202;SDS011;6666;51.626;7.530;2023-07-29T09:31:31;2.10;;;1.00;;
13202;SDS011;6666;51.626;7.530;2023-07-29T09:34:00;2.75;;;1.70;;
13202;SDS011;6666;51.626;7.530;2023-07-29T09:36:30;5.43;;;3.58;;
13202;SDS011;6666;51.626;7.530;2023-07-29T09:38:59;8.85;;;6.15;;
13202;SDS011;6666;51.626;7.530;2023-07-29T09:41:29;8.20;;;5.70;;
13202;SDS011;6666;51.626;7.530;2023-07-29T09:43:58;4.88;;;3.13;;
13202;SDS011;6666;51.626;7.530;2023-07-29T09:46:32;2.05;;;1.70;;
13202;SDS011;6666;51.626;7.530;2023-07-29T09:49:02;7.00;;;2.83;;
13202;SDS011;6666;51.626;7.530;2023-07-29T09:51:31;6.43;;;4.75;;
13202;SDS011;6666;51.626;7.530;2023-07-29T09:54:04;9.43;;;7.40;;
13202;SDS011;6666;51.626;7.530;2023-07-29T09:56:33;2.92;;;2.63;;
13202;SDS011;6666;51.626;7.530;2023-07-29T09:59:08;5.15;;;4.35;;
13202;SDS011;6666;51.626;7.530;2023-07-29T10:01:37;4.55;;;3.45;;
13202;SDS011;6666;51.626;7.530;2023-07-29T10:04:07;2.15;;;1.80;;
13202;SDS011;6666;51.626;7.530;2023-07-29T10:06:39;4.65;;;3.25;;
13202;SDS011;6666;51.626;7.530;2023-07-29T10:09:08;5.80;;;4.15;;
13202;SDS011;6666;51.626;7.530;2023-07-29T10:11:40;1.60;;;1.30;;
13202;SDS011;6666;51.626;7.530;2023-07-29T10:14:33;2.50;;;1.20;;
13202;SDS011;6666;51.626;7.530;2023-07-29T10:17:01;3.10;;;1.00;;
13202;SDS011;6666;51.626;7.530;2023-07-29T10:19:30;1.60;;;1.10;;
13202;SDS011;6666;51.626;7.530;2023-07-29T10:21:59;1.73;;;1.23;;
13202;SDS011;6666;51.626;7.530;2023-07-29T10:24:29;1.50;;;1.33;;
13202;SDS011;6666;51.626;7.530;2023-07-29T10:27:00;1.50;;;1.40;;
13202;SDS011;6666;51.626;7.530;2023-07-29T10:29:30;16.25;;;1.88;;
13202;SDS011;6666;51.626;7.530;2023-07-29T10:32:01;1.40;;;1.30;;
13202;SDS011;6666;51.626;7.530;2023-07-29T10:34:30;2.40;;;1.15;;
13202;SDS011;6666;51.626;7.530;2023-07-29T10:37:00;1.50;;;1.25;;
13202;SDS011;6666;51.626;7.530;2023-07-29T10:39:32;1.80;;;1.40;;
13202;SDS011;6666;51.626;7.530;2023-07-29T10:42:07;1.83;;;1.30;;
13202;SDS011;6666;51.626;7.530;2023-07-29T10:44:48;1.50;;;1.10;;
13202;SDS011;6666;51.626;7.530;2023-07-29T10:47:19;2.10;;;1.70;;
13202;SDS011;6666;51.626;7.530;2023-07-29T10:49:50;3.60;;;1.42;;
13202;SDS011;6666;51.626;7.530;2023-07-29T10:52:31;1.50;;;1.40;;
13202;SDS011;6666;51.626;7.530;2023-07-29T10:55:28;1.40;;;1.27;;
13202;SDS011;6666;51.626;7.530;2023-07-29T10:58:07;1.50;;;1.40;;
13202;SDS011;6666;51.626;7.530;2023-07-29T11:00:38;1.65;;;1.55;;
13202;SDS011;6666;51.626;7.530;2023-07-29T11:03:09;3.47;;;1.80;;
13202;SDS011;6666;51.626;7.530;2023-07-29T11:05:45;2.30;;;2.10;;
13202;SDS011;6666;51.626;7.530;2023-07-29T11:08:15;2.83;;;1.98;;
13202;SDS011;6666;51.626;7.530;2023-07-29T11:11:00;2.13;;;1.60;;
13202;SDS011;6666;51.626;7.530;2023-07-29T11:13:33;1.70;;;1.60;;
13202;SDS011;6666;51.626;7.530;2023-07-29T11:16:02;1.60;;;1.40;;
13202;SDS011;6666;51.626;7.530;2023-07-29T11:18:31;1.80;;;1.40;;
13202;SDS011;6666;51.626;7.530;2023-07-29T11:21:01;2.13;;;1.50;;
13202;SDS011;6666;51.626;7.530;2023-07-29T11:23:30;3.58;;;1.30;;
13202;SDS011;6666;51.626;7.530;2023-07-29T11:26:01;1.50;;;1.20;;
13202;SDS011;6666;51.626;7.530;2023-07-29T11:28:30;1.30;;;1.00;;
13202;SDS011;6666;51.626;7.530;2023-07-29T11:30:58;1.40;;;1.00;;
13202;SDS011;6666;51.626;7.530;2023-07-29T11:33:27;2.85;;;1.10;;
13202;SDS011;6666;51.626;7.530;2023-07-29T11:35:55;1.00;;;0.90;;
13202;SDS011;6666;51.626;7.530;2023-07-29T11:38:24;2.50;;;1.00;;
13202;SDS011;6666;51.626;7.530;2023-07-29T11:40:53;0.90;;;0.80;;
13202;SDS011;6666;51.626;7.530;2023-07-29T11:43:24;6.60;;;1.20;;
13202;SDS011;6666;51.626;7.530;2023-07-29T11:45:53;1.70;;;1.20;;
13202;SDS011;6666;51.626;7.530;2023-07-29T11:48:27;1.70;;;1.20;;
13202;SDS011;6666;51.626;7.530;2023-07-29T11:50:58;3.40;;;1.20;;
13202;SDS011;6666;51.626;7.530;2023-07-29T11:53:37;1.40;;;1.00;;
13202;SDS011;6666;51.626;7.530;2023-07-29T11:56:05;3.20;;;1.30;;
13202;SDS011;6666;51.626;7.530;2023-07-29T11:58:35;2.80;;;1.20;;
13202;SDS011;6666;51.626;7.530;2023-07-29T12:01:04;2.00;;;1.20;;
13202;SDS011;6666;51.626;7.530;2023-07-29T12:03:34;2.70;;;1.47;;
13202;SDS011;6666;51.626;7.530;2023-07-29T12:06:02;2.20;;;1.60;;
13202;SDS011;6666;51.626;7.530;2023-07-29T12:08:30;2.75;;;2.00;;
13202;SDS011;6666;51.626;7.530;2023-07-29T12:10:59;2.90;;;1.50;;
13202;SDS011;6666;51.626;7.530;2023-07-29T12:13:27;2.80;;;1.35;;
13202;SDS011;6666;51.626;7.530;2023-07-29T12:16:01;2.10;;;1.40;;
13202;SDS011;6666;51.626;7.530;2023-07-29T12:18:30;4.20;;;1.98;;
13202;SDS011;6666;51.626;7.530;2023-07-29T12:21:00;4.65;;;3.50;;
13202;SDS011;6666;51.626;7.530;2023-07-29T12:23:28;6.10;;;4.30;;
13202;SDS011;6666;51.626;7.530;2023-07-29T12:25:57;5.90;;;3.90;;
13202;SDS011;6666;51.626;7.530;2023-07-29T12:28:26;7.72;;;5.38;;
13202;SDS011;6666;51.626;7.530;2023-07-29T12:30:54;6.07;;;4.75;;
13202;SDS011;6666;51.626;7.530;2023-07-29T12:33:30;3.30;;;2.10;;
13202;SDS011;6666;51.626;7.530;2023-07-29T12:35:59;2.65;;;2.20;;
13202;SDS011;6666;51.626;7.530;2023-07-29T12:38:28;2.10;;;1.58;;
13202;SDS011;6666;51.626;7.530;2023-07-29T12:40:56;1.30;;;1.02;;
13202;SDS011;6666;51.626;7.530;2023-07-29T12:43:25;2.00;;;1.50;;
13202;SDS011;6666;51.626;7.530;2023-07-29T12:45:53;1.70;;;1.50;;
13202;SDS011;6666;51.626;7.530;2023-07-29T12:48:21;1.70;;;1.40;;
13202;SDS011;6666;51.626;7.530;2023-07-29T12:50:51;2.53;;;1.50;;
13202;SDS011;6666;51.626;7.530;2023-07-29T12:53:19;2.05;;;1.73;;
13202;SDS011;6666;51.626;7.530;2023-07-29T12:55:47;2.00;;;1.80;;
13202;SDS011;6666;51.626;7.530;2023-07-29T12:58:15;2.92;;;1.52;;
13202;SDS011;6666;51.626;7.530;2023-07-29T13:00:43;2.20;;;1.92;;
13202;SDS011;6666;51.626;7.530;2023-07-29T13:03:11;2.37;;;2.03;;
13202;SDS011;6666;51.626;7.530;2023-07-29T13:05:40;2.45;;;1.75;;
13202;SDS011;6666;51.626;7.530;2023-07-29T13:08:09;3.15;;;2.20;;
13202;SDS011;6666;51.626;7.530;2023-07-29T13:10:38;2.08;;;1.80;;
13202;SDS011;6666;51.626;7.530;2023-07-29T13:13:06;1.73;;;1.63;;
13202;SDS011;6666;51.626;7.530;2023-07-29T13:15:34;1.93;;;1.70;;
13202;SDS011;6666;51.626;7.530;2023-07-29T13:18:02;2.00;;;1.70;;
13202;SDS011;6666;51.626;7.530;2023-07-29T13:20:31;3.20;;;2.00;;
13202;SDS011;6666;51.626;7.530;2023-07-29T13:23:00;5.20;;;3.60;;
13202;SDS011;6666;51.626;7.530;2023-07-29T13:25:29;4.40;;;3.03;;
13202;SDS011;6666;51.626;7.530;2023-07-29T13:27:57;4.73;;;3.67;;
13202;SDS011;6666;51.626;7.530;2023-07-29T13:30:26;10.10;;;7.43;;
13202;SDS011;6666;51.626;7.530;2023-07-29T13:32:54;4.95;;;3.97;;
13202;SDS011;6666;51.626;7.530;2023-07-29T13:35:22;3.58;;;2.88;;
13202;SDS011;6666;51.626;7.530;2023-07-29T13:37:50;5.10;;;3.78;;
13202;SDS011;6666;51.626;7.530;2023-07-29T13:40:18;6.40;;;4.93;;
13202;SDS011;6666;51.626;7.530;2023-07-29T13:42:49;6.38;;;5.00;;
13202;SDS011;6666;51.626;7.530;2023-07-29T13:45:18;3.80;;;2.90;;
13202;SDS011;6666;51.626;7.530;2023-07-29T13:47:46;12.75;;;8.93;;
13202;SDS011;6666;51.626;7.530;2023-07-29T13:50:15;20.13;;;14.35;;
13202;SDS011;6666;51.626;7.530;2023-07-29T13:52:44;7.88;;;5.75;;
13202;SDS011;6666;51.626;7.530;2023-07-29T13:55:12;9.85;;;6.93;;
13202;SDS011;6666;51.626;7.530;2023-07-29T13:57:40;11.93;;;8.95;;
13202;SDS011;6666;51.626;7.530;2023-07-29T14:00:10;12.02;;;9.10;;
13202;SDS011;6666;51.626;7.530;2023-07-29T14:02:39;6.60;;;4.90;;
13202;SDS011;6666;51.626;7.530;2023-07-29T14:05:07;8.57;;;4.47;;
13202;SDS011;6666;51.626;7.530;2023-07-29T14:07:35;10.80;;;7.88;;
13202;SDS011;6666;51.626;7.530;2023-07-29T14:10:04;8.05;;;6.85;;
13202;SDS011;6666;51.626;7.530;2023-07-29T14:12:32;7.63;;;5.70;;
13202;SDS011;6666;51.626;7.530;2023-07-29T14:15:01;4.50;;;3.47;;
13202;SDS011;6666;51.626;7.530;2023-07-29T14:17:30;12.00;;;9.75;;
13202;SDS011;6666;51.626;7.530;2023-07-29T14:19:59;10.45;;;7.70;;
13202;SDS011;6666;51.626;7.530;2023-07-29T14:22:27;9.15;;;6.88;;
13202;SDS011;6666;51.626;7.530;2023-07-29T14:24:55;7.65;;;4.57;;
13202;SDS011;6666;51.626;7.530;2023-07-29T14:27:26;5.60;;;4.30;;
13202;SDS011;6666;51.626;7.530;2023-07-29T14:29:54;2.20;;;1.42;;
13202;SDS011;6666;51.626;7.530;2023-07-29T14:32:22;1.63;;;1.40;;
13202;SDS011;6666;51.626;7.530;2023-07-29T14:34:52;3.60;;;1.50;;
13202;SDS011;6666;51.626;7.530;2023-07-29T14:37:20;3.88;;;2.28;;
13202;SDS011;6666;51.626;7.530;2023-07-29T14:39:48;3.30;;;2.37;;
13202;SDS011;6666;51.626;7.530;2023-07-29T14:42:17;5.65;;;3.38;;
13202;SDS011;6666;51.626;7.530;2023-07-29T14:44:45;5.43;;;2.83;;
13202;SDS011;6666;51.626;7.530;2023-07-29T14:47:13;8.77;;;3.30;;
13202;SDS011;6666;51.626;7.530;2023-07-29T14:49:41;4.78;;;3.00;;
13202;SDS011;6666;51.626;7.530;2023-07-29T14:52:11;6.15;;;2.70;;
13202;SDS011;6666;51.626;7.530;2023-07-29T14:54:39;5.40;;;2.75;;
13202;SDS011;6666;51.626;7.530;2023-07-29T14:57:07;3.20;;;2.43;;
13202;SDS011;6666;51.626;7.530;2023-07-29T14:59:37;7.20;;;2.65;;
13202;SDS011;6666;51.626;7.530;2023-07-29T15:02:05;4.30;;;2.37;;
13202;SDS011;6666;51.626;7.530;2023-07-29T15:04:33;6.82;;;2.10;;
13202;SDS011;6666;51.626;7.530;2023-07-29T15:07:02;4.80;;;2.40;;
13202;SDS011;6666;51.626;7.530;2023-07-29T15:09:32;5.30;;;2.40;;
13202;SDS011;6666;51.626;7.530;2023-07-29T15:12:00;4.17;;;2.40;;
13202;SDS011;6666;51.626;7.530;2023-07-29T15:14:28;6.45;;;2.75;;